EBBR/BRU METAR and TAF weather

Enter ICAO airport designator
Station Type Date Time Source
EBBR METAR 2019/07/20 19:50 UTC NOAA

EBBR 201950Z 26012KT CAVOK 21/13 Q1014 NOSIG


Station Type Date Time Source
EBBR Decoded METAR 2019/07/20 19:50 UTC NOAA

Bruxelles National, Belgium (EBBR) 50-54N 004-32E 58M
Jul 20, 2019 - 03:50 PM EDT / 2019.07.20 1950 UTC
Wind: from the W (260 degrees) at 14 MPH (12 KT):0
Visibility: greater than 7 mile(s):0
Temperature: 69 F (21 C)
Dew Point: 55 F (13 C)
Relative Humidity: 60%
Pressure (altimeter): 29.94 in. Hg (1014 hPa)
ob: EBBR 201950Z 26012KT CAVOK 21/13 Q1014 NOSIG
cycle: 20

Station Type Date Time Source
EBBR TAF 2019/07/20 18:27 UTC NOAA

TAF TAF EBBR 201720Z 2018/2124 24009KT 9999 FEW038 PROB30
TEMPO 2104/2107 4500 BR BKN008

Example: see airport list